Time;durP1;ratioP1;P1;durP2;ratioP2;P2;SDS_P1;SDS_P2;PMS_P1;PMS_P2;Temp;Humidity;BMP_temperature;BMP_pressure;BME280_temperature;BME280_humidity;BME280_pressure;Samples;Min_cycle;Max_cycle;Signal;HPM_P1;HPM_P2
2022/01/19 00:01:06;;;;;;;8.15;6.03;;;1.80;99.90;;;;;;1761269;79;21109;-75
2022/01/19 00:03:33;;;;;;;7.75;5.92;;;1.70;99.90;;;;;;1761046;80;21179;-75
2022/01/19 00:06:00;;;;;;;17.55;6.37;;;1.70;99.90;;;;;;1754993;79;21140;-75
2022/01/19 00:08:28;;;;;;;14.25;6.78;;;1.60;99.90;;;;;;1763554;79;21097;-75
2022/01/19 00:10:56;;;;;;;8.43;6.28;;;1.50;99.90;;;;;;1758952;79;21107;-75
2022/01/19 00:13:23;;;;;;;9.35;6.00;;;1.50;99.90;;;;;;1756429;80;21097;-75
2022/01/19 00:15:50;;;;;;;8.63;6.25;;;1.60;99.90;;;;;;1754722;79;21220;-74
2022/01/19 00:18:20;;;;;;;8.85;5.65;;;1.50;99.90;;;;;;1760352;79;21094;-75
2022/01/19 00:20:47;;;;;;;10.60;6.08;;;1.50;99.90;;;;;;1763152;79;21175;-75
2022/01/19 00:23:16;;;;;;;10.38;6.15;;;1.50;99.90;;;;;;1762111;80;21555;-75
2022/01/19 00:25:44;;;;;;;13.60;6.58;;;1.40;99.90;;;;;;1761039;80;21482;-75
2022/01/19 00:28:11;;;;;;;13.65;7.22;;;1.30;99.90;;;;;;1760176;79;21170;-75
2022/01/19 00:30:39;;;;;;;9.15;6.67;;;1.20;99.90;;;;;;1767563;80;21078;-74
2022/01/19 00:33:06;;;;;;;10.23;6.87;;;1.30;99.90;;;;;;1760087;79;21179;-76
2022/01/19 00:35:38;;;;;;;8.78;6.85;;;1.30;99.90;;;;;;1755597;80;21074;-75
2022/01/19 00:38:04;;;;;;;9.33;6.25;;;1.30;99.90;;;;;;1750762;79;21481;-75
2022/01/19 00:40:31;;;;;;;11.18;6.87;;;1.20;99.90;;;;;;1724763;80;21097;-75
2022/01/19 00:42:58;;;;;;;8.65;6.58;;;1.30;99.90;;;;;;1756930;79;21171;-74
2022/01/19 00:45:26;;;;;;;10.03;6.17;;;1.20;99.90;;;;;;1753617;80;21187;-75
2022/01/19 00:47:53;;;;;;;11.95;7.25;;;1.20;99.90;;;;;;1753781;79;21175;-75
2022/01/19 00:50:23;;;;;;;10.30;7.72;;;1.20;99.90;;;;;;1756648;79;21219;-74
2022/01/19 00:52:51;;;;;;;9.80;7.62;;;1.20;99.90;;;;;;1761755;80;21180;-75
2022/01/19 00:55:19;;;;;;;11.48;7.78;;;1.10;99.90;;;;;;1769078;79;21529;-76
2022/01/19 00:57:46;;;;;;;15.32;8.15;;;1.10;99.90;;;;;;1765132;80;21183;-75
2022/01/19 01:00:16;;;;;;;14.85;8.48;;;1.10;99.90;;;;;;1760132;79;21485;-75
2022/01/19 01:02:43;;;;;;;13.50;7.50;;;1.10;99.90;;;;;;1755656;78;21168;-75
2022/01/19 01:05:11;;;;;;;12.13;7.95;;;1.00;99.90;;;;;;1754795;79;21089;-76
2022/01/19 01:07:38;;;;;;;13.03;8.80;;;1.00;99.90;;;;;;1754617;80;21446;-75
2022/01/19 01:10:07;;;;;;;11.97;7.22;;;1.00;99.90;;;;;;1761970;79;21470;-75
2022/01/19 01:12:53;;;;;;;17.95;7.47;;;0.90;99.90;;;;;;1763860;79;21102;-76
2022/01/19 01:15:30;;;;;;;12.70;7.67;;;0.90;99.90;;;;;;1751176;80;21082;-74
2022/01/19 01:20:37;;;;;;;11.65;7.75;;;0.80;99.90;;;;;;1760340;80;21643;-76
2022/01/19 01:23:07;;;;;;;15.38;8.15;;;0.70;99.90;;;;;;1756392;79;21728;-75
2022/01/19 01:25:34;;;;;;;12.68;8.55;;;0.80;99.90;;;;;;1760321;79;21478;-74
2022/01/19 01:28:01;;;;;;;11.57;8.00;;;0.80;99.90;;;;;;1755647;80;21253;-75
2022/01/19 01:30:29;;;;;;;16.57;8.88;;;0.70;99.90;;;;;;1753511;80;21171;-76
2022/01/19 01:32:56;;;;;;;20.55;8.75;;;0.80;99.90;;;;;;1754999;79;21263;-75
2022/01/19 01:35:23;;;;;;;13.50;8.33;;;0.60;99.90;;;;;;1765904;79;21109;-74
2022/01/19 01:37:51;;;;;;;17.73;8.18;;;0.60;99.90;;;;;;1756673;79;21196;-75
2022/01/19 01:40:19;;;;;;;20.23;8.45;;;0.70;99.90;;;;;;1762625;79;21160;-74
2022/01/19 01:42:46;;;;;;;14.68;8.35;;;0.70;99.90;;;;;;1760108;80;21502;-75
2022/01/19 01:45:16;;;;;;;15.53;7.75;;;0.70;99.90;;;;;;1761883;79;21250;-75
2022/01/19 01:47:55;;;;;;;10.60;7.50;;;0.60;99.90;;;;;;1762829;80;21532;-75
2022/01/19 01:55:32;;;;;;;12.73;7.37;;;0.50;99.90;;;;;;1758130;79;21462;-75
2022/01/19 01:57:59;;;;;;;15.13;8.03;;;0.40;99.90;;;;;;1763224;79;21175;-74
2022/01/19 02:00:26;;;;;;;13.35;7.60;;;0.50;99.90;;;;;;1755199;79;21165;-75
2022/01/19 02:02:55;;;;;;;13.80;7.72;;;0.50;99.90;;;;;;1753117;79;21557;-76
2022/01/19 02:05:23;;;;;;;10.32;7.00;;;0.40;99.90;;;;;;1760160;79;21117;-74
2022/01/19 02:08:16;;;;;;;10.38;7.58;;;0.40;99.90;;;;;;1753658;80;21106;-75
2022/01/19 02:10:42;;;;;;;18.92;7.62;;;0.40;99.90;;;;;;1759279;80;21434;-75
2022/01/19 02:23:55;;;;;;;16.17;8.38;;;0.30;99.90;;;;;;1755529;79;21299;-75
2022/01/19 02:26:32;;;;;;;14.25;7.22;;;0.30;99.90;;;;;;1755643;79;21252;-75
2022/01/19 02:29:12;;;;;;;13.75;8.08;;;0.40;99.90;;;;;;1752760;79;21478;-75
2022/01/19 02:36:30;;;;;;;11.38;8.15;;;0.50;99.90;;;;;;1755940;80;21086;-74
2022/01/19 02:42:40;;;;;;;15.48;7.15;;;0.60;99.90;;;;;;1755809;79;21105;-75
2022/01/19 02:50:02;;;;;;;10.75;7.33;;;0.70;99.90;;;;;;1758388;79;21488;-75
2022/01/19 02:52:29;;;;;;;13.35;7.53;;;0.40;99.90;;;;;;1759580;79;21597;-74
2022/01/19 02:54:57;;;;;;;19.00;8.88;;;0.40;99.90;;;;;;1757073;79;21153;-74
2022/01/19 02:57:26;;;;;;;15.70;8.30;;;0.40;99.90;;;;;;1764996;79;21677;-75
2022/01/19 03:10:39;;;;;;;11.30;7.70;;;0.10;99.90;;;;;;1763258;79;21196;-74
2022/01/19 03:13:06;;;;;;;14.05;8.33;;;0.10;99.90;;;;;;1763061;79;21088;-73
2022/01/19 03:15:33;;;;;;;18.48;8.55;;;0.00;99.90;;;;;;1754138;79;21384;-73
2022/01/19 03:18:01;;;;;;;10.58;7.60;;;-0.10;99.90;;;;;;1754395;79;21093;-73
2022/01/19 03:20:29;;;;;;;14.20;8.68;;;-0.10;99.90;;;;;;1757314;79;21085;-73
2022/01/19 03:23:13;;;;;;;14.45;8.40;;;-0.20;99.90;;;;;;1760450;79;21486;-74
2022/01/19 03:25:28;;;;;;;17.95;9.23;;;-0.20;99.90;;;;;;1752384;79;21462;-73
2022/01/19 03:27:55;;;;;;;12.20;8.23;;;-0.30;99.90;;;;;;1754045;79;21486;-74
2022/01/19 03:30:23;;;;;;;14.83;7.90;;;-0.30;99.90;;;;;;1759895;80;21111;-73
2022/01/19 03:32:50;;;;;;;13.72;8.33;;;-0.30;99.90;;;;;;1759958;79;21101;-74
2022/01/19 03:35:17;;;;;;;15.10;8.05;;;-0.40;99.90;;;;;;1757805;79;21279;-76
2022/01/19 03:37:44;;;;;;;15.80;8.35;;;-0.40;99.90;;;;;;1758645;80;21093;-74
2022/01/19 03:40:12;;;;;;;11.12;7.95;;;-0.40;99.90;;;;;;1766525;79;21497;-74
2022/01/19 03:42:39;;;;;;;13.32;8.43;;;-0.40;99.90;;;;;;1759140;79;21616;-73
2022/01/19 03:45:08;;;;;;;14.15;9.53;;;-0.40;99.90;;;;;;1756824;78;21078;-73
2022/01/19 03:47:45;;;;;;;18.55;8.25;;;-0.30;99.90;;;;;;1757052;79;21098;-74
2022/01/19 03:50:06;;;;;;;13.70;9.48;;;-0.40;99.90;;;;;;1761321;79;21108;-73
2022/01/19 03:52:34;;;;;;;15.25;9.03;;;-0.30;99.90;;;;;;1760904;79;21081;-73
2022/01/19 03:55:01;;;;;;;15.00;10.08;;;-0.30;99.90;;;;;;1756957;80;21627;-74
2022/01/19 03:57:28;;;;;;;15.68;10.15;;;-0.30;99.90;;;;;;1754848;80;21183;-73
2022/01/19 03:59:56;;;;;;;16.60;10.43;;;-0.40;99.90;;;;;;1767206;80;21078;-74
2022/01/19 04:02:23;;;;;;;18.35;9.65;;;-0.40;99.90;;;;;;1767340;80;21178;-74
2022/01/19 04:04:57;;;;;;;13.10;8.50;;;-0.50;99.90;;;;;;1748948;79;21183;-75
2022/01/19 04:07:21;;;;;;;12.20;8.45;;;-0.50;99.90;;;;;;1754312;80;21489;-75
2022/01/19 04:09:48;;;;;;;15.93;10.08;;;-0.60;99.90;;;;;;1760943;80;21089;-75
2022/01/19 04:12:40;;;;;;;14.05;9.05;;;-0.70;99.90;;;;;;1754224;79;21171;-74
2022/01/19 04:14:45;;;;;;;14.78;9.78;;;-0.60;99.90;;;;;;1768341;79;21205;-74
2022/01/19 04:17:14;;;;;;;13.60;9.43;;;-0.60;99.90;;;;;;1755046;80;21105;-72
2022/01/19 04:19:46;;;;;;;16.12;9.63;;;-0.50;99.90;;;;;;1765278;79;21481;-74
2022/01/19 04:22:15;;;;;;;13.85;9.83;;;-0.60;99.90;;;;;;1757203;78;21239;-74
2022/01/19 04:24:42;;;;;;;20.67;10.77;;;-0.60;99.90;;;;;;1764145;79;21176;-75
2022/01/19 04:30:21;;;;;;;15.93;9.65;;;-0.60;99.90;;;;;;1753013;80;21120;-74
2022/01/19 04:32:51;;;;;;;18.77;9.93;;;-0.60;99.90;;;;;;1743059;80;21291;-74
2022/01/19 04:35:15;;;;;;;15.40;9.95;;;-0.70;99.90;;;;;;1758996;79;21443;-74
2022/01/19 04:48:59;;;;;;;19.15;10.75;;;-0.70;99.90;;;;;;1756676;78;21493;-74
2022/01/19 05:07:54;;;;;;;21.37;10.85;;;-0.70;99.90;;;;;;1806962;79;21292;-74
2022/01/19 05:15:43;;;;;;;16.40;10.28;;;-0.70;99.90;;;;;;1810440;79;21635;-73
2022/01/19 05:18:10;;;;;;;21.07;10.50;;;-0.60;99.90;;;;;;1813542;79;21144;-73
2022/01/19 05:20:37;;;;;;;17.25;11.08;;;-0.60;99.90;;;;;;1813570;79;21039;-73
2022/01/19 05:23:04;;;;;;;19.92;12.30;;;-0.60;99.90;;;;;;1813372;79;21454;-73
2022/01/19 05:25:32;;;;;;;17.52;11.97;;;-0.50;99.90;;;;;;1813494;79;21082;-74
2022/01/19 05:27:59;;;;;;;25.37;13.08;;;-0.50;99.90;;;;;;1805392;79;21482;-73
2022/01/19 05:30:26;;;;;;;20.97;12.78;;;-0.60;99.90;;;;;;1805274;79;21142;-73
2022/01/19 05:32:54;;;;;;;19.87;12.00;;;-0.60;99.90;;;;;;1805280;79;21449;-74
2022/01/19 05:35:21;;;;;;;21.97;11.15;;;-0.60;99.90;;;;;;1805235;79;21058;-74
2022/01/19 05:37:48;;;;;;;19.35;11.48;;;-0.60;99.90;;;;;;1805393;79;21441;-74
2022/01/19 05:40:16;;;;;;;23.42;12.05;;;-0.60;99.90;;;;;;1805115;79;21086;-75
2022/01/19 05:42:46;;;;;;;20.30;12.13;;;-0.60;99.90;;;;;;1805152;79;21070;-75
2022/01/19 05:45:12;;;;;;;23.42;11.20;;;-0.70;99.90;;;;;;1804875;79;21149;-73
2022/01/19 05:47:39;;;;;;;14.78;11.25;;;-0.60;99.90;;;;;;1804963;79;21140;-73
2022/01/19 05:50:08;;;;;;;22.95;11.93;;;-0.60;99.90;;;;;;1804996;79;21054;-75
2022/01/19 05:52:36;;;;;;;19.35;10.30;;;-0.60;99.90;;;;;;1805040;79;21120;-75
2022/01/19 05:55:05;;;;;;;14.50;10.90;;;-0.50;99.90;;;;;;1804854;79;21058;-75
2022/01/19 05:57:32;;;;;;;20.02;11.18;;;-0.50;99.90;;;;;;1804856;79;21565;-73
2022/01/19 06:00:00;;;;;;;16.37;11.65;;;-0.60;99.90;;;;;;1804975;79;21105;-74
2022/01/19 06:02:27;;;;;;;21.30;11.35;;;-0.60;99.90;;;;;;1804864;79;21112;-71
2022/01/19 06:04:54;;;;;;;25.10;12.50;;;-0.60;99.90;;;;;;1805015;79;21042;-73
2022/01/19 06:07:28;;;;;;;22.77;11.73;;;-0.60;99.90;;;;;;1804907;79;21153;-72
2022/01/19 06:10:01;;;;;;;26.12;12.18;;;-0.60;99.90;;;;;;1803568;78;21499;-74
2022/01/19 06:12:20;;;;;;;20.62;12.10;;;-0.60;99.90;;;;;;1799979;77;21492;-74
2022/01/19 06:14:47;;;;;;;23.83;13.58;;;-0.60;99.90;;;;;;1800671;79;21167;-74
2022/01/19 06:17:14;;;;;;;23.05;13.28;;;-0.70;99.90;;;;;;1808950;79;21010;-74
2022/01/19 06:19:42;;;;;;;20.92;12.25;;;-0.60;99.90;;;;;;1804894;79;21561;-74
2022/01/19 06:22:09;;;;;;;18.55;12.50;;;-0.50;99.90;;;;;;1805065;79;21124;-73
2022/01/19 06:24:38;;;;;;;25.70;14.40;;;-0.40;99.90;;;;;;1804982;79;21462;-76
2022/01/19 06:27:05;;;;;;;23.27;13.93;;;-0.50;99.90;;;;;;1804756;79;21074;-74
2022/01/19 06:29:33;;;;;;;18.82;12.60;;;-0.50;99.90;;;;;;1804854;79;21514;-74
2022/01/19 06:32:00;;;;;;;18.60;12.47;;;-0.30;99.90;;;;;;1804884;79;21205;-74
2022/01/19 06:34:27;;;;;;;19.23;12.58;;;-0.30;99.90;;;;;;1804946;79;21098;-75
2022/01/19 06:36:55;;;;;;;27.52;13.93;;;-0.30;99.90;;;;;;1804877;79;21054;-73
2022/01/19 06:39:22;;;;;;;22.50;13.65;;;-0.20;99.90;;;;;;1804769;79;21086;-74
2022/01/19 06:41:49;;;;;;;27.93;13.03;;;-0.10;99.90;;;;;;1804980;79;21062;-74
2022/01/19 06:44:17;;;;;;;24.50;13.50;;;0.00;99.90;;;;;;1804743;79;21415;-73
2022/01/19 06:46:44;;;;;;;20.62;12.58;;;0.00;99.90;;;;;;1804896;79;21039;-74
2022/01/19 06:49:11;;;;;;;25.35;13.00;;;0.10;99.90;;;;;;1804846;79;21419;-74
2022/01/19 06:51:39;;;;;;;21.77;13.78;;;0.20;99.90;;;;;;1804980;79;21070;-75
2022/01/19 06:54:06;;;;;;;20.35;14.20;;;0.30;99.90;;;;;;1804886;79;21532;-74
2022/01/19 06:56:37;;;;;;;32.78;12.98;;;0.40;99.90;;;;;;1804691;79;21139;-74
2022/01/19 06:59:02;;;;;;;18.77;12.78;;;0.40;99.90;;;;;;1805196;78;21220;-75
2022/01/19 07:01:32;;;;;;;19.37;12.40;;;0.50;99.90;;;;;;1810954;79;21046;-75
2022/01/19 07:04:04;;;;;;;19.55;12.10;;;0.50;99.90;;;;;;1813021;79;21442;-74
2022/01/19 07:06:32;;;;;;;21.70;11.50;;;0.40;99.90;;;;;;1813261;79;21058;-74
2022/01/19 07:08:59;;;;;;;17.07;10.68;;;0.40;99.90;;;;;;1813148;79;21143;-74
2022/01/19 07:11:26;;;;;;;17.32;11.65;;;0.30;99.90;;;;;;1813251;79;21112;-74
2022/01/19 07:13:54;;;;;;;18.07;11.85;;;0.30;99.90;;;;;;1813108;79;21078;-75
2022/01/19 07:16:21;;;;;;;22.17;12.68;;;0.20;99.90;;;;;;1813204;79;21115;-74
2022/01/19 07:18:49;;;;;;;19.87;11.12;;;0.00;99.90;;;;;;1813092;79;21152;-75
2022/01/19 07:21:16;;;;;;;17.50;10.93;;;0.00;99.90;;;;;;1813159;79;21059;-74
2022/01/19 07:23:43;;;;;;;17.60;11.78;;;-0.10;99.90;;;;;;1813176;79;21109;-74
2022/01/19 07:26:10;;;;;;;23.45;12.15;;;0.00;99.90;;;;;;1813100;79;21502;-73
2022/01/19 07:28:38;;;;;;;22.07;12.25;;;0.00;99.90;;;;;;1813297;79;21045;-73
2022/01/19 07:31:05;;;;;;;21.42;13.05;;;0.00;99.90;;;;;;1813127;79;21563;-74
2022/01/19 07:33:32;;;;;;;16.05;12.37;;;0.00;99.90;;;;;;1813180;79;21166;-74
2022/01/19 07:36:00;;;;;;;17.37;12.68;;;0.00;99.90;;;;;;1813139;79;21062;-76
2022/01/19 07:38:27;;;;;;;20.72;12.90;;;0.00;99.90;;;;;;1813065;79;21058;-75
2022/01/19 07:40:54;;;;;;;25.48;12.95;;;0.00;99.90;;;;;;1813110;79;21034;-74
2022/01/19 07:43:22;;;;;;;26.70;13.98;;;0.00;99.90;;;;;;1813078;79;21058;-73
2022/01/19 07:45:49;;;;;;;19.70;11.73;;;0.00;99.90;;;;;;1813215;79;21516;-73
2022/01/19 07:48:17;;;;;;;17.73;12.53;;;0.00;99.90;;;;;;1813121;79;21066;-73
2022/01/19 07:50:44;;;;;;;20.75;13.40;;;0.00;99.90;;;;;;1813074;79;21077;-74
2022/01/19 07:53:11;;;;;;;16.15;12.30;;;0.20;99.90;;;;;;1813453;79;21035;-73
2022/01/19 07:55:39;;;;;;;25.68;12.95;;;0.20;99.90;;;;;;1813427;79;21057;-73
2022/01/19 07:58:06;;;;;;;19.07;12.95;;;0.30;99.90;;;;;;1813382;79;21143;-74
2022/01/19 08:00:35;;;;;;;21.15;13.30;;;0.30;99.90;;;;;;1813546;79;21529;-73
2022/01/19 08:03:02;;;;;;;21.62;13.28;;;0.40;99.90;;;;;;1813633;79;21093;-74
2022/01/19 08:05:30;;;;;;;23.62;13.48;;;0.40;99.90;;;;;;1802953;79;21490;-73
2022/01/19 08:07:57;;;;;;;25.12;13.22;;;0.40;99.90;;;;;;1805431;79;21056;-74
2022/01/19 08:10:24;;;;;;;20.40;13.50;;;0.40;99.90;;;;;;1805361;79;21130;-74
2022/01/19 08:12:52;;;;;;;17.65;12.78;;;0.40;99.90;;;;;;1805312;79;21548;-74
2022/01/19 08:15:20;;;;;;;25.32;13.68;;;0.40;99.90;;;;;;1805449;79;21485;-74
2022/01/19 08:17:47;;;;;;;24.92;14.45;;;0.40;99.90;;;;;;1805279;79;21128;-74
2022/01/19 08:20:14;;;;;;;21.00;14.15;;;0.50;99.90;;;;;;1805188;79;21038;-75
2022/01/19 08:22:42;;;;;;;20.80;14.28;;;0.50;99.90;;;;;;1803909;79;21086;-73
2022/01/19 08:25:09;;;;;;;18.40;13.85;;;0.60;99.90;;;;;;1805521;79;21151;-73
2022/01/19 08:27:36;;;;;;;28.10;14.15;;;0.70;99.90;;;;;;1805301;79;21124;-72
2022/01/19 08:30:05;;;;;;;24.32;14.87;;;0.70;99.90;;;;;;1805201;79;21097;-73
2022/01/19 08:32:34;;;;;;;19.80;13.38;;;0.70;99.90;;;;;;1805233;79;21086;-72
2022/01/19 08:35:02;;;;;;;22.50;14.30;;;0.80;99.90;;;;;;1805307;79;21186;-73
2022/01/19 08:37:29;;;;;;;23.67;15.23;;;0.90;99.90;;;;;;1804931;79;21058;-72
2022/01/19 08:39:57;;;;;;;21.48;14.93;;;1.00;99.90;;;;;;1804880;79;21066;-73
2022/01/19 08:42:25;;;;;;;22.27;14.75;;;1.00;99.90;;;;;;1804923;79;21078;-73
2022/01/19 08:44:53;;;;;;;23.90;14.58;;;1.10;99.90;;;;;;1804943;79;21054;-71
2022/01/19 08:47:20;;;;;;;24.92;14.70;;;1.20;99.90;;;;;;1804878;79;21070;-73
2022/01/19 08:49:47;;;;;;;21.68;14.60;;;1.30;99.90;;;;;;1804856;79;21035;-72
2022/01/19 08:52:16;;;;;;;24.63;15.50;;;1.50;99.90;;;;;;1804920;79;21054;-71
2022/01/19 08:54:45;;;;;;;23.67;14.45;;;1.60;99.90;;;;;;1804959;79;21273;-72
2022/01/19 08:57:12;;;;;;;22.95;13.65;;;1.80;99.90;;;;;;1812055;79;21136;-71
2022/01/19 08:59:39;;;;;;;18.42;11.85;;;2.10;99.90;;;;;;1813201;79;21061;-73
2022/01/19 09:02:07;;;;;;;21.82;13.68;;;2.30;99.90;;;;;;1805100;79;21094;-73
2022/01/19 09:04:34;;;;;;;16.40;10.82;;;2.40;99.90;;;;;;1804945;79;21136;-73
2022/01/19 09:07:01;;;;;;;22.65;11.03;;;2.60;99.90;;;;;;1804944;79;21062;-73
2022/01/19 09:09:29;;;;;;;14.90;10.43;;;2.90;99.90;;;;;;1804912;79;21066;-73
2022/01/19 09:11:56;;;;;;;19.92;12.20;;;3.30;99.90;;;;;;1804819;79;21054;-72
2022/01/19 09:14:23;;;;;;;27.00;10.75;;;3.40;99.90;;;;;;1804977;79;21113;-73
2022/01/19 09:16:51;;;;;;;14.15;9.70;;;3.40;99.90;;;;;;1805079;79;21054;-72
2022/01/19 09:19:19;;;;;;;15.28;8.95;;;3.80;99.90;;;;;;1785019;79;21144;-73
2022/01/19 09:21:47;;;;;;;19.42;10.05;;;4.10;99.90;;;;;;1804973;79;21070;-73
2022/01/19 09:24:15;;;;;;;21.95;11.38;;;3.80;99.90;;;;;;1804924;79;21066;-71
2022/01/19 09:26:42;;;;;;;15.05;10.28;;;4.00;99.90;;;;;;1804909;79;21062;-71
2022/01/19 09:29:09;;;;;;;26.82;14.83;;;4.10;99.90;;;;;;1805026;79;21109;-71
2022/01/19 09:31:39;;;;;;;21.85;10.93;;;4.10;99.90;;;;;;1798244;79;21128;-71
2022/01/19 09:34:14;;;;;;;21.23;11.05;;;4.20;99.90;;;;;;1805040;77;21181;-73
2022/01/19 09:36:44;;;;;;;16.75;9.98;;;4.00;99.90;;;;;;1811627;79;21155;-73
2022/01/19 09:39:05;;;;;;;13.95;9.70;;;4.30;99.90;;;;;;1785591;78;21071;-73
2022/01/19 09:41:32;;;;;;;17.57;10.75;;;4.40;99.90;;;;;;1809952;79;21112;-73
2022/01/19 09:44:00;;;;;;;31.50;11.33;;;4.40;99.90;;;;;;1813416;79;21074;-72
2022/01/19 09:46:29;;;;;;;16.85;10.95;;;4.30;99.90;;;;;;1813220;79;21039;-73
2022/01/19 09:48:58;;;;;;;21.12;10.38;;;4.30;99.90;;;;;;1813317;79;21191;-72
2022/01/19 09:51:26;;;;;;;16.75;9.95;;;4.70;99.90;;;;;;1813456;79;21082;-73
2022/01/19 09:53:53;;;;;;;13.32;9.00;;;4.70;99.90;;;;;;1813329;79;21125;-73
2022/01/19 09:56:20;;;;;;;14.33;9.68;;;4.80;99.90;;;;;;1813288;79;21062;-74
2022/01/19 09:58:48;;;;;;;10.32;8.60;;;4.70;99.90;;;;;;1813420;79;21081;-74
2022/01/19 10:01:22;;;;;;;19.90;11.95;;;5.10;99.90;;;;;;1813423;79;21143;-73
2022/01/19 10:03:50;;;;;;;17.98;10.08;;;5.00;99.90;;;;;;1813478;79;21139;-74
2022/01/19 10:06:19;;;;;;;18.42;9.93;;;5.30;99.90;;;;;;1813286;79;21070;-74
2022/01/19 10:08:57;;;;;;;14.20;9.23;;;5.40;99.90;;;;;;1813320;79;21073;-73
2022/01/19 10:17:03;;;;;;;19.90;9.58;;;5.80;99.90;;;;;;1817654;79;21105;-75
2022/01/19 10:19:33;;;;;;;14.03;8.73;;;6.10;99.90;;;;;;1803875;79;21111;-74
2022/01/19 10:22:20;;;;;;;13.28;8.78;;;5.70;99.90;;;;;;1805141;79;21135;-73
2022/01/19 10:25:02;;;;;;;13.88;8.85;;;5.80;99.90;;;;;;1805155;79;21137;-74
2022/01/19 10:27:42;;;;;;;15.55;8.85;;;6.50;99.90;;;;;;1805148;79;21085;-74
2022/01/19 10:30:12;;;;;;;11.03;8.27;;;6.50;99.90;;;;;;1805456;79;21059;-74
2022/01/19 10:32:49;;;;;;;17.32;8.88;;;7.00;99.90;;;;;;1805294;79;21548;-74
2022/01/19 10:35:31;;;;;;;15.28;8.50;;;6.90;99.90;;;;;;1805187;79;21081;-73
2022/01/19 10:38:19;;;;;;;9.80;7.62;;;7.20;99.90;;;;;;1801734;79;21030;-74
2022/01/19 10:40:58;;;;;;;17.73;8.23;;;7.50;99.90;;;;;;1805253;79;21560;-74
2022/01/19 10:43:40;;;;;;;11.63;8.25;;;7.40;99.90;;;;;;1779630;79;21485;-80
2022/01/19 10:46:31;;;;;;;11.93;8.30;;;7.10;99.90;;;;;;1795102;79;21533;-77
2022/01/19 10:49:08;;;;;;;13.48;8.03;;;7.30;99.90;;;;;;1789953;79;21565;-79
2022/01/19 10:51:43;;;;;;;15.58;7.75;;;7.50;99.90;;;;;;1805018;79;21490;-79
2022/01/19 10:54:19;;;;;;;12.40;7.60;;;7.50;99.90;;;;;;1804756;78;21128;-80
2022/01/19 10:56:54;;;;;;;11.03;7.72;;;7.60;99.90;;;;;;1805291;79;21070;-81
2022/01/19 10:59:24;;;;;;;12.60;7.58;;;7.90;99.90;;;;;;1790870;79;21156;-82
2022/01/19 11:01:55;;;;;;;9.40;6.87;;;8.40;99.90;;;;;;1813577;79;21085;-81
2022/01/19 11:04:24;;;;;;;;;;;8.40;99.90;;;;;;1816404;79;21062;-80
2022/01/19 11:06:57;;;;;;;11.43;7.33;;;9.10;99.90;;;;;;1798321;78;20124;-80
2022/01/19 11:09:27;;;;;;;13.43;7.65;;;9.10;99.90;;;;;;1814245;79;21059;-80
2022/01/19 11:11:55;;;;;;;12.50;7.63;;;8.40;99.90;;;;;;1813934;78;21089;-83
2022/01/19 11:14:28;;;;;;;10.45;7.30;;;8.80;99.90;;;;;;1813616;79;21117;-80
2022/01/19 11:16:56;;;;;;;10.82;6.95;;;8.50;99.90;;;;;;1782005;78;21570;-80
2022/01/19 11:19:23;;;;;;;17.37;9.23;;;8.60;99.90;;;;;;1782759;80;21559;-78
2022/01/19 11:22:21;;;;;;;13.48;8.75;;;8.70;99.90;;;;;;1807212;79;21057;-77
2022/01/19 11:25:00;;;;;;;10.20;7.00;;;9.20;99.90;;;;;;1797305;78;21102;-74
2022/01/19 11:27:32;;;;;;;14.58;7.35;;;9.60;99.90;;;;;;1780956;78;21089;-75
2022/01/19 11:30:29;;;;;;;14.70;7.85;;;9.50;99.90;;;;;;1783074;79;21082;-76
2022/01/19 11:33:25;;;;;;;10.13;7.07;;;9.30;99.90;;;;;;1803699;79;21066;-75
2022/01/19 11:35:58;;;;;;;11.53;7.62;;;9.40;99.90;;;;;;1805507;79;21451;-76
2022/01/19 11:38:40;;;;;;;11.00;6.75;;;9.80;99.90;;;;;;1805024;79;21035;-79
2022/01/19 11:41:13;;;;;;;10.58;6.78;;;9.40;99.90;;;;;;1805664;79;21066;-76
2022/01/19 11:43:55;;;;;;;9.78;6.83;;;9.50;99.90;;;;;;1792012;79;21163;-76
2022/01/19 11:46:39;;;;;;;8.03;6.35;;;9.50;99.90;;;;;;1803775;79;21187;-75
2022/01/19 11:49:07;;;;;;;10.72;6.92;;;9.20;99.90;;;;;;1805080;79;21126;-79
2022/01/19 11:51:45;;;;;;;12.47;6.83;;;9.10;99.90;;;;;;1805285;79;21530;-79
2022/01/19 11:54:16;;;;;;;8.13;5.75;;;9.30;99.90;;;;;;1805098;79;21552;-74
2022/01/19 11:57:08;;;;;;;9.85;6.12;;;9.80;99.90;;;;;;1805273;79;21152;-73
2022/01/19 11:59:51;;;;;;;11.20;6.40;;;10.10;99.90;;;;;;1802576;79;21116;-73
2022/01/19 12:02:35;;;;;;;8.53;6.42;;;10.50;99.90;;;;;;1798316;79;21506;-73
2022/01/19 12:05:02;;;;;;;15.98;6.00;;;11.30;99.90;;;;;;1786023;78;21097;-73
2022/01/19 12:07:38;;;;;;;8.90;6.30;;;11.10;99.90;;;;;;1807036;79;21147;-71
2022/01/19 12:10:11;;;;;;;15.23;6.87;;;9.80;99.90;;;;;;1813289;79;21563;-72
2022/01/19 12:12:47;;;;;;;10.95;6.10;;;9.50;99.90;;;;;;1812866;79;21058;-71
2022/01/19 12:15:10;;;;;;;8.83;6.50;;;10.10;99.90;;;;;;1794150;78;21073;-72
2022/01/19 12:17:56;;;;;;;13.25;6.10;;;9.90;99.90;;;;;;1805865;79;21073;-73
2022/01/19 12:20:48;;;;;;;9.33;6.03;;;10.20;99.90;;;;;;1812819;79;21155;-75
2022/01/19 12:23:28;;;;;;;10.20;6.28;;;10.50;99.90;;;;;;1812651;79;21116;-74
2022/01/19 12:25:56;;;;;;;9.63;6.47;;;10.90;99.90;;;;;;1813364;79;21457;-74
2022/01/19 12:28:47;;;;;;;13.25;6.65;;;10.80;99.90;;;;;;1813157;79;21127;-73
2022/01/19 12:31:27;;;;;;;15.43;7.00;;;11.00;99.90;;;;;;1807369;79;21161;-74
2022/01/19 12:34:07;;;;;;;14.47;6.83;;;10.80;99.90;;;;;;1789036;79;21109;-74
2022/01/19 12:36:41;;;;;;;;;;;11.00;99.90;;;;;;1806719;78;21222;-75
2022/01/19 12:39:30;;;;;;;9.08;6.67;;;11.30;99.90;;;;;;1790104;79;20125;-71
2022/01/19 12:42:02;;;;;;;11.80;7.58;;;11.30;99.90;;;;;;1788430;78;21281;-72
2022/01/19 12:44:55;;;;;;;11.50;7.33;;;10.60;99.90;;;;;;1785759;79;21434;-71
2022/01/19 12:47:28;;;;;;;11.70;7.85;;;10.20;99.90;;;;;;1813070;79;21053;-72
2022/01/19 12:50:08;;;;;;;11.30;8.08;;;9.40;99.90;;;;;;1793065;78;21151;-74
2022/01/19 12:52:38;;;;;;;12.00;8.70;;;8.90;99.90;;;;;;1777112;78;21282;-72
2022/01/19 12:55:11;;;;;;;14.30;9.53;;;8.90;99.90;;;;;;1786994;79;21035;-73
2022/01/19 12:57:39;;;;;;;15.75;9.00;;;8.80;99.90;;;;;;1813036;77;21066;-73
2022/01/19 13:00:08;;;;;;;14.58;8.90;;;9.10;99.90;;;;;;1813283;79;21125;-74
2022/01/19 13:02:35;;;;;;;14.03;9.30;;;9.30;99.90;;;;;;1813497;79;21092;-74
2022/01/19 13:05:17;;;;;;;17.55;9.20;;;9.10;99.90;;;;;;1813233;79;21086;-73
2022/01/19 13:07:45;;;;;;;16.80;9.45;;;8.50;99.90;;;;;;1811860;78;21070;-74
2022/01/19 13:10:25;;;;;;;11.48;8.90;;;8.40;99.90;;;;;;1813208;79;21160;-72
2022/01/19 13:13:12;;;;;;;19.02;8.38;;;8.10;99.90;;;;;;1812449;79;21095;-74
2022/01/19 13:15:55;;;;;;;13.38;8.58;;;7.90;99.90;;;;;;1812855;77;21070;-72
2022/01/19 13:18:34;;;;;;;14.45;8.25;;;7.70;99.90;;;;;;1812971;79;21140;-73
2022/01/19 13:21:07;;;;;;;18.00;7.78;;;7.80;99.90;;;;;;1813277;79;21062;-72
2022/01/19 13:23:36;;;;;;;17.90;8.28;;;8.00;99.90;;;;;;1813160;79;21551;-71
2022/01/19 13:26:05;;;;;;;11.18;8.10;;;7.80;99.90;;;;;;1813387;79;21144;-75
2022/01/19 13:28:34;;;;;;;14.58;7.40;;;7.70;99.90;;;;;;1813328;79;21070;-74
2022/01/19 13:31:21;;;;;;;10.85;7.28;;;7.90;99.90;;;;;;1813232;79;21195;-73
2022/01/19 13:33:59;;;;;;;39.18;20.05;;;8.30;99.90;;;;;;1813314;79;21046;-73
2022/01/19 13:36:31;;;;;;;11.78;7.08;;;8.50;99.90;;;;;;1812951;79;21069;-75
2022/01/19 13:38:58;;;;;;;17.70;7.03;;;8.70;99.90;;;;;;1813263;79;21048;-74
2022/01/19 13:41:26;;;;;;;10.40;6.42;;;9.00;99.90;;;;;;1813413;79;21062;-76
2022/01/19 13:43:53;;;;;;;12.70;6.60;;;9.30;99.90;;;;;;1813546;79;21031;-75
2022/01/19 13:46:24;;;;;;;9.60;6.80;;;9.20;99.90;;;;;;1813776;79;21054;-75
2022/01/19 13:48:59;;;;;;;10.00;7.00;;;9.00;99.90;;;;;;1800960;79;21188;-76
2022/01/19 13:51:29;;;;;;;9.95;6.53;;;8.60;99.90;;;;;;1813760;79;21022;-75
2022/01/19 13:53:57;;;;;;;14.27;7.33;;;8.50;99.90;;;;;;1787519;79;21520;-75
2022/01/19 13:56:32;;;;;;;10.98;6.90;;;8.20;99.90;;;;;;1785059;79;21098;-74
2022/01/19 13:59:11;;;;;;;10.45;7.03;;;8.10;99.90;;;;;;1805326;79;21026;-74
2022/01/19 14:01:41;;;;;;;17.75;7.45;;;8.40;99.90;;;;;;1805438;79;21430;-73
2022/01/19 14:04:12;;;;;;;11.65;7.28;;;8.50;99.90;;;;;;1805659;79;21057;-74
2022/01/19 14:06:44;;;;;;;11.85;6.70;;;8.30;99.90;;;;;;1805306;79;21051;-74
2022/01/19 14:09:23;;;;;;;10.38;6.65;;;8.10;99.90;;;;;;1805221;79;21543;-74
2022/01/19 14:11:53;;;;;;;15.98;7.22;;;8.00;99.90;;;;;;1805497;79;21094;-73
2022/01/19 14:14:25;;;;;;;11.93;7.33;;;7.80;99.90;;;;;;1805828;79;21027;-73
2022/01/19 14:16:56;;;;;;;17.35;8.18;;;7.50;99.90;;;;;;1805342;79;21063;-73
2022/01/19 14:19:27;;;;;;;10.08;6.90;;;7.20;99.90;;;;;;1805626;79;21136;-72
2022/01/19 14:22:09;;;;;;;15.18;7.12;;;7.40;99.90;;;;;;1805414;79;21512;-73